sensor_id;sensor_type;location;lat;lon;timestamp;temperature;humidity
20744;DHT22;56303;52.160;-0.428;2022-07-17T00:00:20;21.10;99.90
20744;DHT22;56303;52.160;-0.428;2022-07-17T00:02:47;20.90;99.90
20744;DHT22;56303;52.160;-0.428;2022-07-17T00:05:17;21.00;99.90
20744;DHT22;56303;52.160;-0.428;2022-07-17T00:07:44;21.10;99.90
20744;DHT22;56303;52.160;-0.428;2022-07-17T00:10:13;21.10;99.90
20744;DHT22;56303;52.160;-0.428;2022-07-17T00:12:40;21.20;99.90
20744;DHT22;56303;52.160;-0.428;2022-07-17T00:15:07;21.30;99.90
20744;DHT22;56303;52.160;-0.428;2022-07-17T00:17:34;21.40;99.90
20744;DHT22;56303;52.160;-0.428;2022-07-17T00:20:02;21.20;99.90
20744;DHT22;56303;52.160;-0.428;2022-07-17T00:22:29;21.00;99.90
20744;DHT22;56303;52.160;-0.428;2022-07-17T00:24:55;21.30;99.90
20744;DHT22;56303;52.160;-0.428;2022-07-17T00:27:23;21.40;99.90
20744;DHT22;56303;52.160;-0.428;2022-07-17T00:29:50;21.10;99.90
20744;DHT22;56303;52.160;-0.428;2022-07-17T00:32:16;20.80;99.90
20744;DHT22;56303;52.160;-0.428;2022-07-17T00:34:44;20.50;99.90
20744;DHT22;56303;52.160;-0.428;2022-07-17T00:37:11;20.50;99.90
20744;DHT22;56303;52.160;-0.428;2022-07-17T00:39:39;20.40;99.90
20744;DHT22;56303;52.160;-0.428;2022-07-17T00:42:10;20.70;99.90
20744;DHT22;56303;52.160;-0.428;2022-07-17T00:44:40;20.70;99.90
20744;DHT22;56303;52.160;-0.428;2022-07-17T00:47:15;21.00;99.90
20744;DHT22;56303;52.160;-0.428;2022-07-17T00:49:43;21.10;99.90
20744;DHT22;56303;52.160;-0.428;2022-07-17T00:52:11;21.10;99.90
20744;DHT22;56303;52.160;-0.428;2022-07-17T00:54:40;21.20;99.90
20744;DHT22;56303;52.160;-0.428;2022-07-17T00:57:10;21.20;99.90
20744;DHT22;56303;52.160;-0.428;2022-07-17T00:59:38;21.00;99.90
20744;DHT22;56303;52.160;-0.428;2022-07-17T01:02:08;21.60;99.90
20744;DHT22;56303;52.160;-0.428;2022-07-17T01:04:36;19.70;99.90
20744;DHT22;56303;52.160;-0.428;2022-07-17T01:07:04;20.40;99.90
20744;DHT22;56303;52.160;-0.428;2022-07-17T01:09:33;20.30;99.90
20744;DHT22;56303;52.160;-0.428;2022-07-17T01:12:00;20.20;99.90
20744;DHT22;56303;52.160;-0.428;2022-07-17T01:14:28;20.30;99.90
20744;DHT22;56303;52.160;-0.428;2022-07-17T01:16:55;20.30;99.90
20744;DHT22;56303;52.160;-0.428;2022-07-17T01:19:22;20.40;99.90
20744;DHT22;56303;52.160;-0.428;2022-07-17T01:21:50;20.50;99.90
20744;DHT22;56303;52.160;-0.428;2022-07-17T01:24:17;20.30;99.90
20744;DHT22;56303;52.160;-0.428;2022-07-17T01:26:47;20.00;99.90
20744;DHT22;56303;52.160;-0.428;2022-07-17T01:29:16;19.70;99.90
20744;DHT22;56303;52.160;-0.428;2022-07-17T01:31:44;19.50;99.90
20744;DHT22;56303;52.160;-0.428;2022-07-17T01:34:12;19.50;99.90
20744;DHT22;56303;52.160;-0.428;2022-07-17T01:36:40;19.30;99.90
20744;DHT22;56303;52.160;-0.428;2022-07-17T01:39:08;19.10;99.90
20744;DHT22;56303;52.160;-0.428;2022-07-17T01:41:37;19.20;99.90
20744;DHT22;56303;52.160;-0.428;2022-07-17T01:44:04;19.20;99.90
20744;DHT22;56303;52.160;-0.428;2022-07-17T01:46:33;19.00;99.90
20744;DHT22;56303;52.160;-0.428;2022-07-17T01:49:00;18.90;99.90
20744;DHT22;56303;52.160;-0.428;2022-07-17T01:51:30;18.90;99.90
20744;DHT22;56303;52.160;-0.428;2022-07-17T01:53:58;19.70;99.90
20744;DHT22;56303;52.160;-0.428;2022-07-17T01:56:25;19.10;99.90
20744;DHT22;56303;52.160;-0.428;2022-07-17T01:58:52;19.20;99.90
20744;DHT22;56303;52.160;-0.428;2022-07-17T02:01:19;19.30;99.90
20744;DHT22;56303;52.160;-0.428;2022-07-17T02:03:46;19.20;99.90
20744;DHT22;56303;52.160;-0.428;2022-07-17T02:06:13;19.20;99.90
20744;DHT22;56303;52.160;-0.428;2022-07-17T02:08:40;19.10;99.90
20744;DHT22;56303;52.160;-0.428;2022-07-17T02:11:06;18.90;99.90
20744;DHT22;56303;52.160;-0.428;2022-07-17T02:13:33;18.70;99.90
20744;DHT22;56303;52.160;-0.428;2022-07-17T02:16:00;18.60;99.90
20744;DHT22;56303;52.160;-0.428;2022-07-17T02:18:28;18.80;99.90
20744;DHT22;56303;52.160;-0.428;2022-07-17T02:20:54;18.70;99.90
20744;DHT22;56303;52.160;-0.428;2022-07-17T02:23:21;18.50;99.90
20744;DHT22;56303;52.160;-0.428;2022-07-17T02:25:48;18.50;99.90
20744;DHT22;56303;52.160;-0.428;2022-07-17T02:28:15;18.40;99.90
20744;DHT22;56303;52.160;-0.428;2022-07-17T02:30:42;19.10;99.90
20744;DHT22;56303;52.160;-0.428;2022-07-17T02:33:09;18.60;99.90
20744;DHT22;56303;52.160;-0.428;2022-07-17T02:35:36;19.00;99.90
20744;DHT22;56303;52.160;-0.428;2022-07-17T02:38:03;18.80;99.90
20744;DHT22;56303;52.160;-0.428;2022-07-17T02:40:30;18.60;99.90
20744;DHT22;56303;52.160;-0.428;2022-07-17T02:42:57;18.50;99.90
20744;DHT22;56303;52.160;-0.428;2022-07-17T02:45:24;18.50;99.90
20744;DHT22;56303;52.160;-0.428;2022-07-17T02:47:52;18.60;99.90
20744;DHT22;56303;52.160;-0.428;2022-07-17T02:50:21;18.70;99.90
20744;DHT22;56303;52.160;-0.428;2022-07-17T02:52:48;18.60;99.90
20744;DHT22;56303;52.160;-0.428;2022-07-17T02:55:17;18.50;99.90
20744;DHT22;56303;52.160;-0.428;2022-07-17T02:57:44;18.40;99.90
20744;DHT22;56303;52.160;-0.428;2022-07-17T03:00:15;19.00;99.90
20744;DHT22;56303;52.160;-0.428;2022-07-17T03:02:44;18.60;99.90
20744;DHT22;56303;52.160;-0.428;2022-07-17T03:05:12;18.10;99.90
20744;DHT22;56303;52.160;-0.428;2022-07-17T03:07:39;19.00;99.90
20744;DHT22;56303;52.160;-0.428;2022-07-17T03:10:07;19.10;99.90
20744;DHT22;56303;52.160;-0.428;2022-07-17T03:12:35;19.30;99.90
20744;DHT22;56303;52.160;-0.428;2022-07-17T03:15:03;19.60;99.90
20744;DHT22;56303;52.160;-0.428;2022-07-17T03:17:30;19.50;99.90
20744;DHT22;56303;52.160;-0.428;2022-07-17T03:19:58;19.50;99.90
20744;DHT22;56303;52.160;-0.428;2022-07-17T03:22:25;19.70;99.90
20744;DHT22;56303;52.160;-0.428;2022-07-17T03:24:52;19.60;99.90
20744;DHT22;56303;52.160;-0.428;2022-07-17T03:27:19;19.40;99.90
20744;DHT22;56303;52.160;-0.428;2022-07-17T03:29:46;18.90;99.90
20744;DHT22;56303;52.160;-0.428;2022-07-17T03:32:12;19.60;99.90
20744;DHT22;56303;52.160;-0.428;2022-07-17T03:34:40;18.70;99.90
20744;DHT22;56303;52.160;-0.428;2022-07-17T03:37:07;19.10;99.90
20744;DHT22;56303;52.160;-0.428;2022-07-17T03:39:34;19.20;99.90
20744;DHT22;56303;52.160;-0.428;2022-07-17T03:42:01;19.30;99.90
20744;DHT22;56303;52.160;-0.428;2022-07-17T03:44:28;19.30;99.90
20744;DHT22;56303;52.160;-0.428;2022-07-17T03:46:55;19.60;99.90
20744;DHT22;56303;52.160;-0.428;2022-07-17T03:49:22;19.70;99.90
20744;DHT22;56303;52.160;-0.428;2022-07-17T03:51:49;19.80;99.90
20744;DHT22;56303;52.160;-0.428;2022-07-17T03:54:16;19.90;99.90
20744;DHT22;56303;52.160;-0.428;2022-07-17T03:56:43;19.90;99.90
20744;DHT22;56303;52.160;-0.428;2022-07-17T03:59:10;19.90;99.90
20744;DHT22;56303;52.160;-0.428;2022-07-17T04:01:37;19.80;99.90
20744;DHT22;56303;52.160;-0.428;2022-07-17T04:04:04;19.80;99.90
20744;DHT22;56303;52.160;-0.428;2022-07-17T04:06:31;19.50;99.90
20744;DHT22;56303;52.160;-0.428;2022-07-17T04:08:58;19.10;99.90
20744;DHT22;56303;52.160;-0.428;2022-07-17T04:11:25;19.00;99.90
20744;DHT22;56303;52.160;-0.428;2022-07-17T04:13:52;19.30;99.90
20744;DHT22;56303;52.160;-0.428;2022-07-17T04:16:19;19.30;99.90
20744;DHT22;56303;52.160;-0.428;2022-07-17T04:18:46;19.60;99.90
20744;DHT22;56303;52.160;-0.428;2022-07-17T04:21:13;19.60;99.90
20744;DHT22;56303;52.160;-0.428;2022-07-17T04:23:40;19.30;99.90
20744;DHT22;56303;52.160;-0.428;2022-07-17T04:26:07;19.40;99.90
20744;DHT22;56303;52.160;-0.428;2022-07-17T04:28:38;19.40;99.90
20744;DHT22;56303;52.160;-0.428;2022-07-17T04:31:05;19.40;99.90
20744;DHT22;56303;52.160;-0.428;2022-07-17T04:33:32;19.50;99.90
20744;DHT22;56303;52.160;-0.428;2022-07-17T04:35:59;19.30;99.90
20744;DHT22;56303;52.160;-0.428;2022-07-17T04:38:25;19.20;99.90
20744;DHT22;56303;52.160;-0.428;2022-07-17T04:40:52;18.90;99.90
20744;DHT22;56303;52.160;-0.428;2022-07-17T04:43:19;18.60;99.90
20744;DHT22;56303;52.160;-0.428;2022-07-17T04:45:46;18.50;99.90
20744;DHT22;56303;52.160;-0.428;2022-07-17T04:48:13;18.50;99.90
20744;DHT22;56303;52.160;-0.428;2022-07-17T04:50:40;18.30;99.90
20744;DHT22;56303;52.160;-0.428;2022-07-17T04:53:07;18.40;99.90
20744;DHT22;56303;52.160;-0.428;2022-07-17T04:55:34;18.70;99.90
20744;DHT22;56303;52.160;-0.428;2022-07-17T04:58:01;18.90;99.90
20744;DHT22;56303;52.160;-0.428;2022-07-17T05:00:28;18.70;99.90
20744;DHT22;56303;52.160;-0.428;2022-07-17T05:02:55;19.20;99.90
20744;DHT22;56303;52.160;-0.428;2022-07-17T05:05:22;18.90;99.90
20744;DHT22;56303;52.160;-0.428;2022-07-17T05:07:49;19.00;99.90
20744;DHT22;56303;52.160;-0.428;2022-07-17T05:10:16;19.10;99.90
20744;DHT22;56303;52.160;-0.428;2022-07-17T05:12:43;19.30;99.90
20744;DHT22;56303;52.160;-0.428;2022-07-17T05:15:10;19.40;99.90
20744;DHT22;56303;52.160;-0.428;2022-07-17T05:17:37;19.40;99.90
20744;DHT22;56303;52.160;-0.428;2022-07-17T05:20:05;19.50;99.90
20744;DHT22;56303;52.160;-0.428;2022-07-17T05:22:33;19.50;99.90
20744;DHT22;56303;52.160;-0.428;2022-07-17T05:24:59;19.60;99.90
20744;DHT22;56303;52.160;-0.428;2022-07-17T05:27:27;19.40;99.90
20744;DHT22;56303;52.160;-0.428;2022-07-17T05:29:54;19.40;99.90
20744;DHT22;56303;52.160;-0.428;2022-07-17T05:32:21;19.30;99.90
20744;DHT22;56303;52.160;-0.428;2022-07-17T05:34:48;19.40;99.90
20744;DHT22;56303;52.160;-0.428;2022-07-17T05:37:15;19.60;99.90
20744;DHT22;56303;52.160;-0.428;2022-07-17T05:39:42;19.60;99.90
20744;DHT22;56303;52.160;-0.428;2022-07-17T05:42:09;19.50;99.90
20744;DHT22;56303;52.160;-0.428;2022-07-17T05:44:35;19.50;99.90
20744;DHT22;56303;52.160;-0.428;2022-07-17T05:47:02;19.70;99.90
20744;DHT22;56303;52.160;-0.428;2022-07-17T05:49:29;20.30;99.90
20744;DHT22;56303;52.160;-0.428;2022-07-17T05:51:56;20.10;99.90
20744;DHT22;56303;52.160;-0.428;2022-07-17T05:54:23;20.10;99.90
20744;DHT22;56303;52.160;-0.428;2022-07-17T05:56:50;20.30;99.90
20744;DHT22;56303;52.160;-0.428;2022-07-17T05:59:17;20.40;99.90
20744;DHT22;56303;52.160;-0.428;2022-07-17T06:01:44;20.40;99.90
20744;DHT22;56303;52.160;-0.428;2022-07-17T06:04:10;20.50;99.90
20744;DHT22;56303;52.160;-0.428;2022-07-17T06:06:37;20.60;99.90
20744;DHT22;56303;52.160;-0.428;2022-07-17T06:09:04;20.70;99.90
20744;DHT22;56303;52.160;-0.428;2022-07-17T06:11:31;20.80;99.90
20744;DHT22;56303;52.160;-0.428;2022-07-17T06:14:03;21.00;99.90
20744;DHT22;56303;52.160;-0.428;2022-07-17T06:16:30;21.20;99.90
20744;DHT22;56303;52.160;-0.428;2022-07-17T06:18:57;21.30;99.90
20744;DHT22;56303;52.160;-0.428;2022-07-17T06:21:24;21.70;99.90
20744;DHT22;56303;52.160;-0.428;2022-07-17T06:23:51;22.00;99.90
20744;DHT22;56303;52.160;-0.428;2022-07-17T06:26:18;22.20;99.90
20744;DHT22;56303;52.160;-0.428;2022-07-17T06:28:45;22.40;99.90
20744;DHT22;56303;52.160;-0.428;2022-07-17T06:31:12;22.30;99.90
20744;DHT22;56303;52.160;-0.428;2022-07-17T06:33:39;22.30;99.90
20744;DHT22;56303;52.160;-0.428;2022-07-17T06:36:06;22.40;99.90
20744;DHT22;56303;52.160;-0.428;2022-07-17T06:38:33;22.30;99.90
20744;DHT22;56303;52.160;-0.428;2022-07-17T06:41:01;22.20;99.90
20744;DHT22;56303;52.160;-0.428;2022-07-17T06:43:28;22.20;99.90
20744;DHT22;56303;52.160;-0.428;2022-07-17T06:45:55;22.40;99.90
20744;DHT22;56303;52.160;-0.428;2022-07-17T06:48:23;22.40;99.90
20744;DHT22;56303;52.160;-0.428;2022-07-17T06:50:50;22.40;99.90
20744;DHT22;56303;52.160;-0.428;2022-07-17T06:53:17;22.30;99.90
20744;DHT22;56303;52.160;-0.428;2022-07-17T06:55:44;22.20;99.90
20744;DHT22;56303;52.160;-0.428;2022-07-17T06:58:11;22.40;99.90
20744;DHT22;56303;52.160;-0.428;2022-07-17T07:00:38;22.50;99.90
20744;DHT22;56303;52.160;-0.428;2022-07-17T07:03:05;22.50;99.90
20744;DHT22;56303;52.160;-0.428;2022-07-17T07:05:33;22.60;99.90
20744;DHT22;56303;52.160;-0.428;2022-07-17T07:08:00;22.50;99.90
20744;DHT22;56303;52.160;-0.428;2022-07-17T07:10:27;22.50;99.90
20744;DHT22;56303;52.160;-0.428;2022-07-17T07:12:54;22.60;99.90
20744;DHT22;56303;52.160;-0.428;2022-07-17T07:15:22;22.60;99.90
20744;DHT22;56303;52.160;-0.428;2022-07-17T07:17:50;22.60;99.90
20744;DHT22;56303;52.160;-0.428;2022-07-17T07:20:17;22.70;99.90
20744;DHT22;56303;52.160;-0.428;2022-07-17T07:22:44;22.90;99.90
20744;DHT22;56303;52.160;-0.428;2022-07-17T07:25:11;23.00;99.90
20744;DHT22;56303;52.160;-0.428;2022-07-17T07:27:38;22.90;99.90
20744;DHT22;56303;52.160;-0.428;2022-07-17T07:30:05;22.90;99.90
20744;DHT22;56303;52.160;-0.428;2022-07-17T07:32:37;22.90;99.90
20744;DHT22;56303;52.160;-0.428;2022-07-17T07:35:06;23.00;99.90
20744;DHT22;56303;52.160;-0.428;2022-07-17T07:37:33;23.10;99.90
20744;DHT22;56303;52.160;-0.428;2022-07-17T07:40:00;23.00;99.90
20744;DHT22;56303;52.160;-0.428;2022-07-17T07:42:28;23.10;99.90
20744;DHT22;56303;52.160;-0.428;2022-07-17T07:44:55;23.30;99.90
20744;DHT22;56303;52.160;-0.428;2022-07-17T07:47:22;23.50;99.90
20744;DHT22;56303;52.160;-0.428;2022-07-17T07:49:49;23.70;99.40
20744;DHT22;56303;52.160;-0.428;2022-07-17T07:52:16;23.90;99.20
20744;DHT22;56303;52.160;-0.428;2022-07-17T07:54:43;24.00;99.00
20744;DHT22;56303;52.160;-0.428;2022-07-17T07:57:10;24.30;98.70
20744;DHT22;56303;52.160;-0.428;2022-07-17T07:59:37;24.40;98.30
20744;DHT22;56303;52.160;-0.428;2022-07-17T08:02:05;24.50;98.00
20744;DHT22;56303;52.160;-0.428;2022-07-17T08:04:32;24.60;97.60
20744;DHT22;56303;52.160;-0.428;2022-07-17T08:06:59;24.70;97.40
20744;DHT22;56303;52.160;-0.428;2022-07-17T08:09:26;24.60;97.00
20744;DHT22;56303;52.160;-0.428;2022-07-17T08:11:53;24.60;97.20
20744;DHT22;56303;52.160;-0.428;2022-07-17T08:14:20;24.60;97.40
20744;DHT22;56303;52.160;-0.428;2022-07-17T08:16:47;24.80;97.20
20744;DHT22;56303;52.160;-0.428;2022-07-17T08:19:14;24.80;97.30
20744;DHT22;56303;52.160;-0.428;2022-07-17T08:21:41;24.70;97.20
20744;DHT22;56303;52.160;-0.428;2022-07-17T08:24:08;24.80;97.20
20744;DHT22;56303;52.160;-0.428;2022-07-17T08:26:35;25.00;97.20
20744;DHT22;56303;52.160;-0.428;2022-07-17T08:29:02;24.80;96.70
20744;DHT22;56303;52.160;-0.428;2022-07-17T08:31:29;24.80;96.50
20744;DHT22;56303;52.160;-0.428;2022-07-17T08:33:56;25.00;96.40
20744;DHT22;56303;52.160;-0.428;2022-07-17T08:36:23;25.00;96.00
20744;DHT22;56303;52.160;-0.428;2022-07-17T08:38:50;25.30;95.70
20744;DHT22;56303;52.160;-0.428;2022-07-17T08:41:17;25.10;95.60
20744;DHT22;56303;52.160;-0.428;2022-07-17T08:43:48;25.20;95.40
20744;DHT22;56303;52.160;-0.428;2022-07-17T08:46:17;25.30;95.70
20744;DHT22;56303;52.160;-0.428;2022-07-17T08:48:46;25.50;95.20
20744;DHT22;56303;52.160;-0.428;2022-07-17T08:51:16;25.70;94.50
20744;DHT22;56303;52.160;-0.428;2022-07-17T08:53:44;25.70;94.40
20744;DHT22;56303;52.160;-0.428;2022-07-17T08:56:11;25.90;94.10
20744;DHT22;56303;52.160;-0.428;2022-07-17T08:58:38;26.00;93.70
20744;DHT22;56303;52.160;-0.428;2022-07-17T09:01:05;25.90;93.50
20744;DHT22;56303;52.160;-0.428;2022-07-17T09:03:32;26.00;93.70
20744;DHT22;56303;52.160;-0.428;2022-07-17T09:06:20;25.90;93.40
20744;DHT22;56303;52.160;-0.428;2022-07-17T09:08:48;26.00;93.70
20744;DHT22;56303;52.160;-0.428;2022-07-17T09:11:15;26.30;93.50
20744;DHT22;56303;52.160;-0.428;2022-07-17T09:13:45;26.50;92.40
20744;DHT22;56303;52.160;-0.428;2022-07-17T09:16:13;26.20;92.40
20744;DHT22;56303;52.160;-0.428;2022-07-17T09:18:48;26.00;92.40
20744;DHT22;56303;52.160;-0.428;2022-07-17T09:21:27;26.30;92.80
20744;DHT22;56303;52.160;-0.428;2022-07-17T09:24:06;26.50;92.20
20744;DHT22;56303;52.160;-0.428;2022-07-17T09:26:35;26.50;91.70
20744;DHT22;56303;52.160;-0.428;2022-07-17T09:29:03;26.70;91.70
20744;DHT22;56303;52.160;-0.428;2022-07-17T09:31:31;26.80;91.90
20744;DHT22;56303;52.160;-0.428;2022-07-17T09:33:59;26.80;90.90
20744;DHT22;56303;52.160;-0.428;2022-07-17T09:36:26;27.10;91.40
20744;DHT22;56303;52.160;-0.428;2022-07-17T09:38:56;27.10;90.80
20744;DHT22;56303;52.160;-0.428;2022-07-17T09:41:25;27.00;90.80
20744;DHT22;56303;52.160;-0.428;2022-07-17T09:43:58;27.30;90.90
20744;DHT22;56303;52.160;-0.428;2022-07-17T09:46:29;27.20;89.00
20744;DHT22;56303;52.160;-0.428;2022-07-17T09:48:59;27.20;89.70
20744;DHT22;56303;52.160;-0.428;2022-07-17T09:51:32;27.40;89.40
20744;DHT22;56303;52.160;-0.428;2022-07-17T09:54:02;27.40;89.10
20744;DHT22;56303;52.160;-0.428;2022-07-17T09:56:34;27.40;88.70
20744;DHT22;56303;52.160;-0.428;2022-07-17T09:59:09;27.60;86.20
20744;DHT22;56303;52.160;-0.428;2022-07-17T10:01:39;28.10;86.40
20744;DHT22;56303;52.160;-0.428;2022-07-17T10:04:08;28.30;84.10
20744;DHT22;56303;52.160;-0.428;2022-07-17T10:06:37;28.00;83.90
20744;DHT22;56303;52.160;-0.428;2022-07-17T10:09:04;28.20;84.50
20744;DHT22;56303;52.160;-0.428;2022-07-17T10:11:38;28.60;83.10
20744;DHT22;56303;52.160;-0.428;2022-07-17T10:14:14;28.70;83.10
20744;DHT22;56303;52.160;-0.428;2022-07-17T10:16:41;28.80;82.50
20744;DHT22;56303;52.160;-0.428;2022-07-17T10:19:16;29.00;80.80
20744;DHT22;56303;52.160;-0.428;2022-07-17T10:21:58;28.90;80.60
20744;DHT22;56303;52.160;-0.428;2022-07-17T10:24:28;29.30;80.50
20744;DHT22;56303;52.160;-0.428;2022-07-17T10:26:57;29.30;80.00
20744;DHT22;56303;52.160;-0.428;2022-07-17T10:29:35;29.40;77.00
20744;DHT22;56303;52.160;-0.428;2022-07-17T10:32:13;29.50;74.90
20744;DHT22;56303;52.160;-0.428;2022-07-17T10:34:47;29.40;75.30
20744;DHT22;56303;52.160;-0.428;2022-07-17T10:37:19;29.60;76.30
20744;DHT22;56303;52.160;-0.428;2022-07-17T10:42:38;29.60;75.90
20744;DHT22;56303;52.160;-0.428;2022-07-17T10:45:09;29.90;75.00
20744;DHT22;56303;52.160;-0.428;2022-07-17T10:47:59;30.00;73.60
20744;DHT22;56303;52.160;-0.428;2022-07-17T10:50:33;30.40;73.60
20744;DHT22;56303;52.160;-0.428;2022-07-17T10:53:06;30.50;73.50
20744;DHT22;56303;52.160;-0.428;2022-07-17T10:55:35;30.30;71.40
20744;DHT22;56303;52.160;-0.428;2022-07-17T10:58:04;30.20;71.20
20744;DHT22;56303;52.160;-0.428;2022-07-17T11:00:31;30.40;69.90
20744;DHT22;56303;52.160;-0.428;2022-07-17T11:03:11;30.40;69.30
20744;DHT22;56303;52.160;-0.428;2022-07-17T11:05:39;30.60;69.40
20744;DHT22;56303;52.160;-0.428;2022-07-17T11:08:06;30.10;68.90
20744;DHT22;56303;52.160;-0.428;2022-07-17T11:10:36;30.00;70.40
20744;DHT22;56303;52.160;-0.428;2022-07-17T11:13:15;30.30;70.40
20744;DHT22;56303;52.160;-0.428;2022-07-17T11:15:47;30.70;70.40
20744;DHT22;56303;52.160;-0.428;2022-07-17T11:18:17;31.00;68.30
20744;DHT22;56303;52.160;-0.428;2022-07-17T11:20:55;31.00;67.00
20744;DHT22;56303;52.160;-0.428;2022-07-17T11:23:25;31.30;68.30
20744;DHT22;56303;52.160;-0.428;2022-07-17T11:25:59;31.70;65.60
20744;DHT22;56303;52.160;-0.428;2022-07-17T11:28:36;31.50;65.30
20744;DHT22;56303;52.160;-0.428;2022-07-17T11:31:22;31.70;65.40
20744;DHT22;56303;52.160;-0.428;2022-07-17T11:33:55;31.90;64.40
20744;DHT22;56303;52.160;-0.428;2022-07-17T11:36:31;31.70;64.10
20744;DHT22;56303;52.160;-0.428;2022-07-17T11:39:08;32.00;64.70
20744;DHT22;56303;52.160;-0.428;2022-07-17T11:41:46;32.20;62.90
20744;DHT22;56303;52.160;-0.428;2022-07-17T11:44:16;32.50;62.60
20744;DHT22;56303;52.160;-0.428;2022-07-17T11:46:45;32.70;63.80
20744;DHT22;56303;52.160;-0.428;2022-07-17T11:49:29;32.60;61.80
20744;DHT22;56303;52.160;-0.428;2022-07-17T11:52:19;32.30;63.50
20744;DHT22;56303;52.160;-0.428;2022-07-17T11:54:55;32.40;63.40
20744;DHT22;56303;52.160;-0.428;2022-07-17T11:57:25;32.80;62.20
20744;DHT22;56303;52.160;-0.428;2022-07-17T11:59:53;32.50;62.60
20744;DHT22;56303;52.160;-0.428;2022-07-17T12:02:23;32.30;62.40
20744;DHT22;56303;52.160;-0.428;2022-07-17T12:04:57;32.30;62.40
20744;DHT22;56303;52.160;-0.428;2022-07-17T12:07:27;32.40;62.10
20744;DHT22;56303;52.160;-0.428;2022-07-17T12:09:54;32.80;62.80
20744;DHT22;56303;52.160;-0.428;2022-07-17T12:12:25;33.00;61.60
20744;DHT22;56303;52.160;-0.428;2022-07-17T12:14:59;32.50;61.70
20744;DHT22;56303;52.160;-0.428;2022-07-17T12:17:38;32.40;61.00
20744;DHT22;56303;52.160;-0.428;2022-07-17T12:20:07;32.90;61.50
20744;DHT22;56303;52.160;-0.428;2022-07-17T12:22:48;32.80;62.20
20744;DHT22;56303;52.160;-0.428;2022-07-17T12:25:26;32.00;63.80
20744;DHT22;56303;52.160;-0.428;2022-07-17T12:27:54;32.60;61.20
20744;DHT22;56303;52.160;-0.428;2022-07-17T12:30:22;32.60;59.30
20744;DHT22;56303;52.160;-0.428;2022-07-17T12:32:49;32.90;59.90
20744;DHT22;56303;52.160;-0.428;2022-07-17T12:35:16;33.10;59.20
20744;DHT22;56303;52.160;-0.428;2022-07-17T12:37:43;33.30;59.20
20744;DHT22;56303;52.160;-0.428;2022-07-17T12:40:10;33.20;59.10
20744;DHT22;56303;52.160;-0.428;2022-07-17T12:42:42;33.40;58.50
20744;DHT22;56303;52.160;-0.428;2022-07-17T12:45:10;33.60;59.20
20744;DHT22;56303;52.160;-0.428;2022-07-17T12:47:37;33.50;58.60
20744;DHT22;56303;52.160;-0.428;2022-07-17T12:50:04;32.80;59.80
20744;DHT22;56303;52.160;-0.428;2022-07-17T12:52:32;32.40;59.60
20744;DHT22;56303;52.160;-0.428;2022-07-17T12:54:58;32.20;60.50
20744;DHT22;56303;52.160;-0.428;2022-07-17T12:57:26;32.00;60.40
20744;DHT22;56303;52.160;-0.428;2022-07-17T12:59:53;32.50;61.00
20744;DHT22;56303;52.160;-0.428;2022-07-17T13:02:22;32.90;60.70
20744;DHT22;56303;52.160;-0.428;2022-07-17T13:04:49;32.80;61.00
20744;DHT22;56303;52.160;-0.428;2022-07-17T13:07:17;33.10;61.10
20744;DHT22;56303;52.160;-0.428;2022-07-17T13:09:44;33.50;61.10
20744;DHT22;56303;52.160;-0.428;2022-07-17T13:12:11;34.00;60.10
20744;DHT22;56303;52.160;-0.428;2022-07-17T13:14:38;34.40;59.20
20744;DHT22;56303;52.160;-0.428;2022-07-17T13:17:05;34.70;59.50
20744;DHT22;56303;52.160;-0.428;2022-07-17T13:19:32;35.40;58.80
20744;DHT22;56303;52.160;-0.428;2022-07-17T13:22:00;35.20;57.30
20744;DHT22;56303;52.160;-0.428;2022-07-17T13:24:29;35.30;57.80
20744;DHT22;56303;52.160;-0.428;2022-07-17T13:26:57;35.90;58.30
20744;DHT22;56303;52.160;-0.428;2022-07-17T13:29:24;35.60;57.00
20744;DHT22;56303;52.160;-0.428;2022-07-17T13:31:53;35.70;56.40
20744;DHT22;56303;52.160;-0.428;2022-07-17T13:34:22;35.50;57.10
20744;DHT22;56303;52.160;-0.428;2022-07-17T13:36:49;34.60;57.40
20744;DHT22;56303;52.160;-0.428;2022-07-17T13:39:17;34.40;57.80
20744;DHT22;56303;52.160;-0.428;2022-07-17T13:41:43;34.80;58.80
20744;DHT22;56303;52.160;-0.428;2022-07-17T13:44:11;35.00;58.30
20744;DHT22;56303;52.160;-0.428;2022-07-17T13:46:37;35.10;58.60
20744;DHT22;56303;52.160;-0.428;2022-07-17T13:49:05;35.80;57.60
20744;DHT22;56303;52.160;-0.428;2022-07-17T13:51:32;36.50;57.10
20744;DHT22;56303;52.160;-0.428;2022-07-17T13:53:59;37.10;57.40
20744;DHT22;56303;52.160;-0.428;2022-07-17T13:56:26;36.70;56.00
20744;DHT22;56303;52.160;-0.428;2022-07-17T13:58:53;36.90;56.40
20744;DHT22;56303;52.160;-0.428;2022-07-17T14:01:21;36.80;56.00
20744;DHT22;56303;52.160;-0.428;2022-07-17T14:03:49;36.80;55.80
20744;DHT22;56303;52.160;-0.428;2022-07-17T14:06:16;36.80;56.20
20744;DHT22;56303;52.160;-0.428;2022-07-17T14:08:44;37.00;56.20
20744;DHT22;56303;52.160;-0.428;2022-07-17T14:11:11;37.20;56.10
20744;DHT22;56303;52.160;-0.428;2022-07-17T14:13:39;36.40;55.40
20744;DHT22;56303;52.160;-0.428;2022-07-17T14:16:13;35.70;56.70
20744;DHT22;56303;52.160;-0.428;2022-07-17T14:18:40;36.00;56.80
20744;DHT22;56303;52.160;-0.428;2022-07-17T14:21:29;36.00;56.80
20744;DHT22;56303;52.160;-0.428;2022-07-17T14:23:57;36.70;56.70
20744;DHT22;56303;52.160;-0.428;2022-07-17T14:26:25;37.50;55.70
20744;DHT22;56303;52.160;-0.428;2022-07-17T14:28:52;37.40;54.90
20744;DHT22;56303;52.160;-0.428;2022-07-17T14:31:20;37.30;55.30
20744;DHT22;56303;52.160;-0.428;2022-07-17T14:33:47;36.80;55.20
20744;DHT22;56303;52.160;-0.428;2022-07-17T14:36:14;36.70;55.10
20744;DHT22;56303;52.160;-0.428;2022-07-17T14:38:41;36.40;55.10
20744;DHT22;56303;52.160;-0.428;2022-07-17T14:41:08;36.80;55.60
20744;DHT22;56303;52.160;-0.428;2022-07-17T14:43:35;37.10;54.40
20744;DHT22;56303;52.160;-0.428;2022-07-17T14:46:09;36.80;54.20
20744;DHT22;56303;52.160;-0.428;2022-07-17T14:48:36;37.30;54.30
20744;DHT22;56303;52.160;-0.428;2022-07-17T14:51:03;36.70;53.90
20744;DHT22;56303;52.160;-0.428;2022-07-17T14:53:30;36.30;54.20
20744;DHT22;56303;52.160;-0.428;2022-07-17T14:55:57;36.70;56.00
20744;DHT22;56303;52.160;-0.428;2022-07-17T14:58:24;37.10;54.10
20744;DHT22;56303;52.160;-0.428;2022-07-17T15:00:51;36.60;54.70
20744;DHT22;56303;52.160;-0.428;2022-07-17T15:03:18;36.60;55.10
20744;DHT22;56303;52.160;-0.428;2022-07-17T15:05:46;36.50;55.60
20744;DHT22;56303;52.160;-0.428;2022-07-17T15:08:13;37.50;55.60
20744;DHT22;56303;52.160;-0.428;2022-07-17T15:10:40;37.60;54.20
20744;DHT22;56303;52.160;-0.428;2022-07-17T15:13:07;37.50;53.50
20744;DHT22;56303;52.160;-0.428;2022-07-17T15:15:34;37.10;53.90
20744;DHT22;56303;52.160;-0.428;2022-07-17T15:18:01;35.70;54.90
20744;DHT22;56303;52.160;-0.428;2022-07-17T15:20:28;35.50;55.60
20744;DHT22;56303;52.160;-0.428;2022-07-17T15:22:56;35.30;56.00
20744;DHT22;56303;52.160;-0.428;2022-07-17T15:25:25;35.50;56.10